Time;durP1;ratioP1;P1;durP2;ratioP2;P2;SDS_P1;SDS_P2;PMS_P1;PMS_P2;Temp;Humidity;BMP_temperature;BMP_pressure;BME280_temperature;BME280_humidity;BME280_pressure;Samples;Min_cycle;Max_cycle;Signal;HPM_P1;HPM_P2
2023/05/17 00:00:36;;;;;;;2.70;1.50;;;5.60;1.00;;;;;;6246975;23;20023;-88
2023/05/17 00:03:26;;;;;;;11.27;1.98;;;5.50;1.00;;;;;;6246953;23;20017;-86
2023/05/17 00:06:13;;;;;;;5.70;1.77;;;5.40;1.00;;;;;;6245846;23;20327;-87
2023/05/17 00:09:01;;;;;;;10.45;2.10;;;5.50;1.00;;;;;;6245724;23;20032;-87
2023/05/17 00:11:50;;;;;;;7.25;2.05;;;5.60;1.00;;;;;;6247036;23;20039;-89
2023/05/17 00:14:37;;;;;;;5.57;1.70;;;5.50;1.00;;;;;;6247117;23;20369;-88
2023/05/17 00:17:25;;;;;;;8.73;2.40;;;5.40;7.20;;;;;;6245202;23;20039;-86
2023/05/17 00:20:12;;;;;;;6.93;1.80;;;5.40;11.10;;;;;;6268204;22;20027;-87
2023/05/17 00:22:59;;;;;;;2.33;1.65;;;5.40;14.90;;;;;;6250388;22;20027;-89
2023/05/17 00:25:49;;;;;;;6.97;2.15;;;5.40;38.10;;;;;;6247304;23;20028;-88
2023/05/17 00:28:37;;;;;;;5.93;1.90;;;5.40;40.40;;;;;;6246546;23;20036;-89
2023/05/17 00:31:24;;;;;;;6.35;2.03;;;5.40;51.20;;;;;;6247555;23;20028;-88
2023/05/17 00:34:14;;;;;;;4.68;1.63;;;5.40;42.50;;;;;;6245709;23;20368;-89
2023/05/17 00:37:04;;;;;;;6.85;2.20;;;5.40;47.90;;;;;;6246632;23;20020;-89
2023/05/17 00:39:56;;;;;;;3.60;1.70;;;5.40;62.00;;;;;;6245168;23;20047;-88
2023/05/17 00:42:43;;;;;;;9.25;1.92;;;5.40;40.30;;;;;;6263911;22;20292;-88
2023/05/17 00:45:31;;;;;;;4.75;1.65;;;5.40;49.80;;;;;;6246656;23;20036;-89
2023/05/17 00:48:19;;;;;;;6.18;1.75;;;5.50;51.10;;;;;;6250906;23;20035;-90
2023/05/17 00:51:07;;;;;;;4.43;2.00;;;5.50;49.90;;;;;;6252537;23;20328;-87
2023/05/17 00:53:54;;;;;;;6.70;1.92;;;5.50;52.80;;;;;;6249522;23;20105;-87
2023/05/17 00:56:42;;;;;;;8.57;2.45;;;5.50;55.90;;;;;;6249339;23;20044;-88
2023/05/17 00:59:30;;;;;;;6.18;1.80;;;5.50;56.90;;;;;;6247675;23;20024;-88
2023/05/17 01:02:17;;;;;;;4.75;2.15;;;5.50;73.10;;;;;;6267706;22;20020;-87
2023/05/17 01:05:05;;;;;;;4.75;1.67;;;5.50;90.70;;;;;;6249849;22;20063;-89
2023/05/17 01:07:55;;;;;;;6.38;1.70;;;5.50;93.40;;;;;;6247080;23;20028;-88
2023/05/17 01:11:19;;;;;;;6.57;2.00;;;5.50;83.10;;;;;;6244534;23;20032;-90
2023/05/17 01:14:26;;;;;;;6.03;1.90;;;5.50;88.10;;;;;;6244653;23;20031;-88
2023/05/17 01:17:43;;;;;;;4.63;1.77;;;5.50;78.30;;;;;;6246264;23;20042;-89
2023/05/17 01:20:42;;;;;;;8.20;1.95;;;5.50;89.50;;;;;;6223122;23;20403;-88
2023/05/17 01:23:44;;;;;;;3.83;1.95;;;5.60;59.80;;;;;;6263799;22;20039;-89
2023/05/17 01:26:45;;;;;;;3.42;1.80;;;5.60;75.70;;;;;;6246579;22;20412;-89
2023/05/17 01:29:37;;;;;;;11.18;2.00;;;5.50;78.30;;;;;;6243343;22;20034;-89
2023/05/17 01:32:24;;;;;;;9.40;2.07;;;5.50;84.00;;;;;;6246605;22;20399;-89
2023/05/17 01:35:12;;;;;;;6.43;1.70;;;5.60;80.10;;;;;;6244098;23;20035;-88
2023/05/17 01:38:00;;;;;;;3.67;1.75;;;5.50;75.80;;;;;;6245962;22;20331;-88
2023/05/17 01:41:22;;;;;;;11.68;1.70;;;5.50;77.40;;;;;;6244658;23;20024;-87
2023/05/17 01:44:23;;;;;;;10.55;2.15;;;5.50;93.00;;;;;;6245214;23;20024;-90
2023/05/17 01:47:29;;;;;;;4.00;1.88;;;5.50;99.90;;;;;;6244524;23;20043;-87
2023/05/17 01:50:21;;;;;;;9.70;1.88;;;5.40;99.90;;;;;;6246834;23;20343;-88
2023/05/17 01:53:17;;;;;;;3.15;1.52;;;5.40;99.90;;;;;;6245744;23;20023;-87
2023/05/17 01:56:12;;;;;;;6.32;2.40;;;5.40;99.90;;;;;;6244103;23;20027;-88
2023/05/17 01:59:05;;;;;;;7.88;2.50;;;5.30;99.90;;;;;;6245391;23;20020;-88
2023/05/17 02:02:04;;;;;;;6.32;2.13;;;5.30;99.90;;;;;;6249055;22;20028;-88
2023/05/17 02:04:53;;;;;;;4.95;2.28;;;5.30;99.90;;;;;;6247106;23;20116;-88
2023/05/17 02:07:43;;;;;;;6.47;2.00;;;5.30;99.90;;;;;;6250254;22;20024;-87
2023/05/17 02:10:30;;;;;;;6.10;1.90;;;5.30;99.90;;;;;;6248255;23;20412;-90
2023/05/17 02:13:29;;;;;;;5.65;1.90;;;5.10;99.90;;;;;;6245649;23;20047;-88
2023/05/17 02:16:21;;;;;;;13.73;2.17;;;5.10;99.90;;;;;;6247679;22;20030;-88
2023/05/17 02:19:08;;;;;;;5.57;2.08;;;5.20;99.90;;;;;;6247777;22;20035;-88
2023/05/17 02:21:55;;;;;;;7.88;2.10;;;5.10;99.90;;;;;;6245176;23;20312;-88
2023/05/17 02:24:45;;;;;;;6.13;2.10;;;5.00;99.90;;;;;;6246728;23;20051;-88
2023/05/17 02:27:32;;;;;;;3.53;1.90;;;4.90;99.90;;;;;;6245639;23;20028;-87
2023/05/17 02:30:21;;;;;;;6.53;2.17;;;4.90;99.90;;;;;;6246171;23;20027;-88
2023/05/17 02:33:08;;;;;;;4.72;1.95;;;4.80;99.90;;;;;;6245066;23;20024;-87
2023/05/17 02:35:55;;;;;;;5.80;2.17;;;4.80;99.90;;;;;;6247314;23;20020;-88
2023/05/17 02:38:43;;;;;;;5.00;2.30;;;4.70;99.90;;;;;;6247135;23;20343;-87
2023/05/17 02:41:30;;;;;;;9.23;2.20;;;4.70;99.90;;;;;;6249077;23;20027;-88
2023/05/17 02:44:17;;;;;;;5.72;1.90;;;4.60;99.90;;;;;;6247793;23;20035;-87
2023/05/17 02:47:07;;;;;;;7.82;2.42;;;4.60;99.90;;;;;;6247447;23;20028;-87
2023/05/17 02:49:56;;;;;;;6.65;2.30;;;4.60;99.90;;;;;;6246385;23;20051;-87
2023/05/17 02:52:43;;;;;;;6.88;2.63;;;4.50;99.90;;;;;;6250449;23;20032;-87
2023/05/17 02:55:30;;;;;;;15.73;2.42;;;4.50;99.90;;;;;;6246150;23;20024;-86
2023/05/17 02:58:17;;;;;;;9.10;2.97;;;4.40;99.90;;;;;;6247007;23;20307;-87
2023/05/17 03:01:08;;;;;;;7.15;2.03;;;4.40;1.00;;;;;;6244020;23;20024;-88
2023/05/17 03:03:55;;;;;;;7.57;2.38;;;4.40;1.00;;;;;;6245647;23;20024;-87
2023/05/17 03:06:43;;;;;;;8.32;2.40;;;4.30;1.00;;;;;;6249234;23;20059;-87
2023/05/17 03:09:30;;;;;;;8.65;2.60;;;4.20;1.00;;;;;;6228756;23;20084;-88
2023/05/17 03:12:17;;;;;;;4.75;2.53;;;4.10;1.00;;;;;;6248713;23;20028;-88
2023/05/17 03:15:06;;;;;;;9.43;2.85;;;4.00;1.00;;;;;;6225134;23;20032;-88
2023/05/17 03:17:57;;;;;;;8.98;3.22;;;4.00;1.00;;;;;;6248725;22;20024;-87
2023/05/17 03:20:44;;;;;;;8.75;2.58;;;3.90;5.60;;;;;;6245891;23;20021;-87
2023/05/17 03:23:31;;;;;;;7.15;2.80;;;3.80;53.30;;;;;;6244409;23;20439;-87
2023/05/17 03:26:19;;;;;;;8.45;2.60;;;3.70;99.90;;;;;;6247218;23;20036;-89
2023/05/17 03:29:06;;;;;;;4.80;2.92;;;3.60;99.90;;;;;;6244819;23;20034;-89
2023/05/17 03:31:53;;;;;;;5.50;2.60;;;3.50;99.90;;;;;;6244343;23;20343;-88
2023/05/17 03:34:41;;;;;;;7.07;2.75;;;3.40;99.90;;;;;;6266987;22;20635;-89
2023/05/17 03:37:28;;;;;;;11.23;3.20;;;3.40;99.90;;;;;;6245195;23;20024;-87
2023/05/17 03:40:15;;;;;;;11.55;3.15;;;3.30;99.90;;;;;;6245696;23;20020;-89
2023/05/17 03:43:03;;;;;;;13.73;3.47;;;3.30;1.00;;;;;;6245447;23;20123;-89
2023/05/17 03:45:50;;;;;;;8.18;3.25;;;3.10;1.00;;;;;;6247835;22;20028;-89
2023/05/17 03:48:37;;;;;;;11.32;4.00;;;3.00;81.90;;;;;;6244529;23;20028;-89
2023/05/17 03:51:27;;;;;;;8.23;3.67;;;3.00;99.90;;;;;;6245774;23;20457;-89
2023/05/17 03:54:14;;;;;;;13.57;3.70;;;3.00;99.90;;;;;;6245524;22;20027;-88
2023/05/17 03:57:04;;;;;;;10.85;3.83;;;3.00;1.00;;;;;;6246999;23;20023;-88
2023/05/17 03:59:51;;;;;;;11.18;3.95;;;3.00;64.40;;;;;;6243122;23;20024;-89
2023/05/17 04:03:17;;;;;;;10.45;3.75;;;3.00;99.90;;;;;;6244228;23;20293;-89
2023/05/17 04:06:09;;;;;;;13.68;3.80;;;3.10;99.90;;;;;;6264970;22;20363;-88
2023/05/17 04:08:58;;;;;;;10.52;3.78;;;3.00;99.90;;;;;;6248308;23;20103;-87
2023/05/17 04:11:45;;;;;;;9.10;4.20;;;2.90;99.90;;;;;;6250296;23;20404;-86
2023/05/17 04:14:35;;;;;;;5.90;3.80;;;3.00;1.00;;;;;;6253111;23;20038;-89
2023/05/17 04:17:22;;;;;;;15.25;3.83;;;2.90;83.40;;;;;;6257730;22;20031;-88
2023/05/17 04:20:10;;;;;;;13.38;4.97;;;3.00;99.90;;;;;;6251487;23;20031;-87
2023/05/17 04:23:00;;;;;;;12.98;5.68;;;3.00;1.00;;;;;;6246999;23;20038;-86
2023/05/17 04:25:50;;;;;;;13.90;6.47;;;3.10;71.40;;;;;;6242036;23;20020;-85
2023/05/17 04:28:37;;;;;;;11.10;5.85;;;3.20;99.90;;;;;;6243657;23;20035;-85
2023/05/17 04:31:24;;;;;;;14.23;5.68;;;3.30;99.90;;;;;;6245274;23;20024;-85
2023/05/17 04:34:26;;;;;;;16.73;5.72;;;3.40;99.90;;;;;;6244544;23;20042;-86
2023/05/17 04:37:14;;;;;;;20.00;4.78;;;3.50;99.90;;;;;;6243616;23;20074;-86
2023/05/17 04:40:02;;;;;;;29.52;5.55;;;3.60;99.90;;;;;;6243429;23;20383;-87
2023/05/17 04:42:49;;;;;;;7.13;3.63;;;3.70;99.90;;;;;;6245516;22;20024;-85
2023/05/17 04:45:39;;;;;;;8.45;4.63;;;3.80;99.90;;;;;;6245691;22;20020;-85
2023/05/17 04:48:30;;;;;;;8.02;4.38;;;4.00;1.00;;;;;;6243538;23;20028;-86
2023/05/17 04:51:20;;;;;;;12.18;4.28;;;4.10;1.00;;;;;;6244095;23;20020;-85
2023/05/17 04:54:09;;;;;;;9.55;4.18;;;4.20;99.90;;;;;;6244268;23;20074;-85
2023/05/17 04:56:57;;;;;;;16.52;8.07;;;4.30;99.90;;;;;;6244792;23;20050;-86
2023/05/17 04:59:44;;;;;;;17.73;4.45;;;4.30;99.90;;;;;;6247379;22;20055;-87
2023/05/17 05:02:32;;;;;;;11.43;3.70;;;4.40;1.00;;;;;;6247502;23;20066;-87
2023/05/17 05:05:20;;;;;;;11.73;4.35;;;4.50;99.90;;;;;;6245233;23;20293;-86
2023/05/17 05:08:10;;;;;;;17.05;4.15;;;4.60;99.90;;;;;;6244242;23;20122;-86
2023/05/17 05:10:57;;;;;;;8.68;3.58;;;4.60;99.90;;;;;;6245196;23;20020;-85
2023/05/17 05:13:44;;;;;;;6.70;3.20;;;4.70;27.70;;;;;;6243317;23;20028;-87
2023/05/17 05:16:32;;;;;;;12.32;4.00;;;4.80;1.00;;;;;;6244113;23;20024;-87
2023/05/17 05:19:19;;;;;;;16.17;3.30;;;4.80;1.00;;;;;;6245329;23;20076;-86
2023/05/17 05:22:07;;;;;;;11.40;3.60;;;4.90;99.90;;;;;;6243965;23;20035;-87
2023/05/17 05:24:55;;;;;;;9.15;3.28;;;5.10;99.90;;;;;;6225939;23;20117;-87
2023/05/17 05:27:42;;;;;;;15.35;4.15;;;5.20;99.90;;;;;;6245577;23;20027;-87
2023/05/17 05:30:31;;;;;;;8.85;3.58;;;5.30;99.90;;;;;;6246757;23;20404;-87
2023/05/17 05:33:19;;;;;;;9.38;3.50;;;5.40;99.90;;;;;;6248201;23;20032;-88
2023/05/17 05:36:06;;;;;;;6.63;3.25;;;5.40;40.10;;;;;;6226065;23;20091;-87
2023/05/17 05:38:54;;;;;;;13.82;3.35;;;5.60;1.00;;;;;;6246279;23;20141;-87
2023/05/17 05:41:44;;;;;;;9.05;3.10;;;5.70;1.00;;;;;;6248631;23;20026;-86
2023/05/17 05:44:32;;;;;;;11.05;2.97;;;5.90;1.00;;;;;;6222224;23;20330;-87
2023/05/17 05:48:07;;;;;;;7.03;2.95;;;6.10;99.90;;;;;;6248163;23;20028;-86
2023/05/17 05:52:06;;;;;;;;;;;;;;;;;;;;;
2023/05/17 05:55:32;;;;;;;12.18;2.80;;;6.50;99.90;;;;;;6061814;23;20430;-86
2023/05/17 10:33:29;;;;;;;3.88;2.42;;;19.00;99.90;;;;;;6154436;23;20372;-88
2023/05/17 10:41:23;;;;;;;7.75;3.25;;;19.20;99.90;;;;;;6067596;23;20425;-90
2023/05/17 10:45:24;;;;;;;;;;;;;;;;;;;;;
2023/05/17 11:09:42;;;;;;;;;;;;;;;;;;;;;
2023/05/17 11:13:08;;;;;;;9.38;3.92;;;17.50;99.90;;;;;;6131957;23;20021;-89
2023/05/17 11:25:22;;;;;;;8.75;3.50;;;15.60;99.90;;;;;;5976945;23;20026;-86
2023/05/17 11:28:34;;;;;;;9.32;3.83;;;15.50;99.90;;;;;;6089450;23;20029;-85
2023/05/17 11:45:09;;;;;;;8.10;3.50;;;17.80;99.90;;;;;;6113339;23;20051;-88
2023/05/17 11:48:41;;;;;;;9.68;3.75;;;16.40;99.90;;;;;;6161581;23;20024;-89
2023/05/17 11:51:40;;;;;;;5.43;3.50;;;15.30;99.90;;;;;;6161734;23;20052;-88
2023/05/17 12:08:00;;;;;;;6.47;4.07;;;15.50;99.90;;;;;;6087214;23;20151;-89
2023/05/17 12:10:56;;;;;;;9.63;3.25;;;16.70;99.90;;;;;;6159313;23;20058;-88
2023/05/17 12:14:05;;;;;;;8.93;3.85;;;17.60;99.90;;;;;;6284054;22;20118;-87
2023/05/17 12:17:12;;;;;;;11.40;3.75;;;17.40;99.90;;;;;;6319052;22;20110;-87
2023/05/17 12:20:17;;;;;;;6.47;3.78;;;16.80;99.90;;;;;;6319392;22;20500;-87
2023/05/17 12:23:09;;;;;;;8.23;3.95;;;16.40;99.90;;;;;;6312345;22;20026;-90
2023/05/17 12:26:14;;;;;;;8.13;4.05;;;16.50;99.90;;;;;;6314748;22;20091;-86
2023/05/17 12:29:20;;;;;;;9.23;3.80;;;16.30;99.90;;;;;;6320378;22;20033;-87
2023/05/17 12:32:09;;;;;;;7.13;4.00;;;16.50;99.90;;;;;;6314910;22;20030;-88
2023/05/17 12:34:57;;;;;;;10.50;4.30;;;15.80;99.90;;;;;;6316104;22;20034;-88
2023/05/17 12:37:44;;;;;;;13.85;4.32;;;15.20;99.90;;;;;;6315450;22;20023;-88
2023/05/17 12:40:34;;;;;;;8.52;3.67;;;15.40;99.90;;;;;;6316096;22;20023;-87
2023/05/17 12:43:27;;;;;;;21.17;3.90;;;15.90;99.90;;;;;;6315428;22;20076;-87
2023/05/17 12:46:23;;;;;;;10.68;4.20;;;16.40;99.90;;;;;;6314848;22;20018;-89
2023/05/17 12:49:24;;;;;;;6.05;3.40;;;16.60;99.90;;;;;;6316479;22;20023;-87
2023/05/17 12:52:11;;;;;;;9.18;4.07;;;16.60;99.90;;;;;;6316725;22;20103;-86
2023/05/17 12:55:01;;;;;;;11.48;3.63;;;16.40;99.90;;;;;;6339529;22;20436;-88
2023/05/17 12:57:53;;;;;;;9.13;3.42;;;16.60;99.90;;;;;;6318987;22;20071;-89
2023/05/17 13:00:56;;;;;;;9.57;3.58;;;16.80;99.90;;;;;;6318384;22;20382;-87
2023/05/17 13:03:50;;;;;;;8.05;3.42;;;16.60;99.90;;;;;;6319194;22;20325;-92
2023/05/17 13:06:48;;;;;;;10.95;4.20;;;16.60;99.90;;;;;;6315313;22;20667;-89
2023/05/17 13:09:49;;;;;;;7.28;3.72;;;16.60;99.90;;;;;;6319385;22;20072;-88
2023/05/17 13:12:39;;;;;;;6.55;3.33;;;15.80;99.90;;;;;;6315418;22;20027;-88
2023/05/17 13:15:31;;;;;;;8.93;4.20;;;15.30;99.90;;;;;;6314853;22;20333;-87
2023/05/17 13:18:20;;;;;;;11.90;3.78;;;15.40;99.90;;;;;;6315176;22;20019;-86
2023/05/17 13:21:10;;;;;;;9.63;4.05;;;15.60;99.90;;;;;;6316279;22;20043;-86
2023/05/17 13:23:57;;;;;;;6.88;3.33;;;15.50;99.90;;;;;;6314757;22;20023;-85
2023/05/17 13:26:49;;;;;;;7.25;3.80;;;15.10;99.90;;;;;;6337815;22;20038;-84
2023/05/17 13:29:40;;;;;;;9.00;3.75;;;15.00;99.90;;;;;;6314253;22;20030;-86
2023/05/17 13:32:28;;;;;;;11.13;4.00;;;15.80;99.90;;;;;;6314753;22;20027;-85
2023/05/17 13:35:16;;;;;;;9.88;4.10;;;16.30;99.90;;;;;;6314217;22;20022;-89
2023/05/17 13:38:05;;;;;;;5.82;3.63;;;15.30;99.90;;;;;;6314843;22;20029;-84
2023/05/17 13:40:58;;;;;;;7.35;3.92;;;14.80;99.90;;;;;;6314829;22;20037;-87
2023/05/17 13:43:48;;;;;;;9.80;3.72;;;14.70;99.90;;;;;;6315617;22;20398;-86
2023/05/17 13:46:37;;;;;;;8.20;3.75;;;14.70;99.90;;;;;;6314553;22;20027;-90
2023/05/17 13:49:28;;;;;;;8.82;3.33;;;14.40;99.90;;;;;;6317117;22;20027;-86
2023/05/17 13:52:17;;;;;;;6.95;3.42;;;14.20;99.90;;;;;;6315277;22;20031;-87
2023/05/17 13:55:06;;;;;;;9.05;3.63;;;14.30;99.90;;;;;;6315285;22;20087;-87
2023/05/17 13:57:53;;;;;;;8.63;3.75;;;14.20;99.90;;;;;;6316031;22;20108;-88
2023/05/17 14:00:43;;;;;;;8.13;4.00;;;14.10;99.90;;;;;;6313305;22;20023;-89
2023/05/17 14:03:33;;;;;;;9.88;4.10;;;14.00;99.90;;;;;;6321678;22;20026;-89
2023/05/17 14:06:22;;;;;;;8.65;3.75;;;13.70;99.90;;;;;;6317303;22;20032;-88
2023/05/17 14:09:09;;;;;;;9.30;4.07;;;13.50;99.90;;;;;;6316684;22;20090;-87
2023/05/17 14:12:02;;;;;;;8.52;3.67;;;13.20;99.90;;;;;;6314944;22;20034;-89
2023/05/17 14:14:52;;;;;;;;;;;13.10;99.90;;;;;;6317698;22;20046;-87
2023/05/17 14:17:40;;;;;;;8.48;4.05;;;12.90;99.90;;;;;;6323653;22;19946;-88
2023/05/17 14:20:29;;;;;;;7.35;4.00;;;12.80;99.90;;;;;;6322598;22;20023;-87
2023/05/17 14:23:17;;;;;;;8.02;3.97;;;12.70;99.90;;;;;;6325082;22;20343;-88
2023/05/17 14:26:06;;;;;;;11.10;3.95;;;12.70;99.90;;;;;;6319425;22;20031;-88
2023/05/17 14:28:54;;;;;;;7.90;3.90;;;12.70;99.90;;;;;;6294929;22;20101;-88
2023/05/17 14:31:42;;;;;;;9.38;3.80;;;12.70;99.90;;;;;;6295745;22;20080;-90
2023/05/17 14:34:29;;;;;;;7.85;3.72;;;12.90;99.90;;;;;;6312686;22;20023;-88
2023/05/17 14:37:31;;;;;;;9.75;4.47;;;13.20;99.90;;;;;;6321559;22;20015;-90
2023/05/17 14:40:25;;;;;;;8.82;4.00;;;13.30;99.90;;;;;;6317385;22;20441;-89
2023/05/17 14:43:12;;;;;;;7.40;3.60;;;13.20;99.90;;;;;;6321081;22;20046;-90
2023/05/17 14:46:01;;;;;;;9.73;3.67;;;13.20;99.90;;;;;;6317750;22;20054;-87
2023/05/17 14:48:55;;;;;;;11.93;3.95;;;13.20;99.90;;;;;;6319027;22;20060;-86
2023/05/17 14:51:43;;;;;;;10.80;4.00;;;13.00;99.90;;;;;;6317882;22;20022;-88
2023/05/17 14:54:31;;;;;;;10.27;4.10;;;12.50;99.90;;;;;;6297827;22;20029;-88
2023/05/17 14:57:27;;;;;;;7.88;3.85;;;12.30;99.90;;;;;;6225086;23;20031;-92
2023/05/17 15:00:16;;;;;;;7.05;3.85;;;12.10;99.90;;;;;;6223762;23;20063;-89
2023/05/17 15:03:06;;;;;;;14.25;4.15;;;12.10;99.90;;;;;;6224394;23;20032;-90
2023/05/17 15:06:10;;;;;;;10.60;4.40;;;11.90;99.90;;;;;;6229281;23;20028;-89
2023/05/17 15:09:01;;;;;;;9.98;3.92;;;12.00;99.90;;;;;;6227112;23;20506;-89
2023/05/17 15:11:53;;;;;;;9.40;4.30;;;12.10;99.90;;;;;;6246503;23;20020;-91
2023/05/17 15:14:45;;;;;;;7.47;3.63;;;12.20;99.90;;;;;;6250423;22;20023;-88
2023/05/17 15:17:36;;;;;;;10.38;4.05;;;12.40;99.90;;;;;;6341026;22;20023;-89
2023/05/17 15:20:41;;;;;;;7.32;3.50;;;12.30;99.90;;;;;;6336486;22;20015;-89
2023/05/17 15:23:30;;;;;;;8.93;3.88;;;12.20;99.90;;;;;;6316572;22;20027;-89
2023/05/17 15:26:23;;;;;;;7.82;4.03;;;12.30;99.90;;;;;;6317074;22;20410;-89
2023/05/17 15:29:12;;;;;;;9.57;3.92;;;12.20;99.90;;;;;;6316345;22;20022;-88
2023/05/17 15:32:05;;;;;;;7.35;3.95;;;12.10;99.90;;;;;;6316471;22;20160;-86
2023/05/17 15:34:53;;;;;;;10.40;4.32;;;12.20;99.90;;;;;;6316138;22;20042;-87
2023/05/17 15:37:47;;;;;;;4.85;3.30;;;12.10;99.90;;;;;;6316034;22;20098;-88
2023/05/17 15:40:35;;;;;;;10.18;3.92;;;12.20;99.90;;;;;;6318691;22;20313;-86
2023/05/17 15:43:22;;;;;;;8.18;3.65;;;12.10;99.90;;;;;;6315623;22;20080;-88
2023/05/17 15:46:11;;;;;;;13.93;4.55;;;12.10;99.90;;;;;;6315696;22;20023;-87
2023/05/17 15:49:01;;;;;;;13.57;5.20;;;12.10;99.90;;;;;;6316844;22;20023;-87
2023/05/17 15:52:11;;;;;;;7.60;4.35;;;12.10;99.90;;;;;;6196016;23;20020;-88
2023/05/17 15:55:00;;;;;;;9.60;5.32;;;12.10;99.90;;;;;;6194570;23;20139;-90
2023/05/17 15:57:48;;;;;;;11.10;4.40;;;12.10;99.90;;;;;;6193789;23;20016;-89
2023/05/17 16:00:41;;;;;;;8.75;4.57;;;12.00;99.90;;;;;;6194660;23;20029;-87
2023/05/17 16:03:35;;;;;;;8.55;4.63;;;11.90;99.90;;;;;;6195202;23;20103;-89
2023/05/17 16:06:34;;;;;;;9.88;3.80;;;11.80;99.90;;;;;;6196141;23;20051;-90
2023/05/17 16:09:36;;;;;;;10.48;3.95;;;11.60;99.90;;;;;;6247169;22;20018;-87
2023/05/17 16:12:27;;;;;;;8.55;4.43;;;11.60;99.90;;;;;;6317700;22;20049;-91
2023/05/17 16:15:29;;;;;;;12.05;4.13;;;11.60;99.90;;;;;;6320139;22;20035;-90
2023/05/17 16:18:20;;;;;;;7.60;3.95;;;11.50;99.90;;;;;;6317695;22;20378;-88
2023/05/17 16:21:10;;;;;;;7.00;3.70;;;11.30;99.90;;;;;;6315792;22;20042;-90
2023/05/17 16:23:57;;;;;;;10.25;4.10;;;11.30;99.90;;;;;;6318553;22;20031;-91
2023/05/17 16:26:45;;;;;;;8.70;3.92;;;11.20;99.90;;;;;;6324040;22;20030;-88
2023/05/17 16:29:45;;;;;;;7.68;4.15;;;11.10;99.90;;;;;;6324869;22;20027;-89
2023/05/17 16:32:33;;;;;;;9.55;4.38;;;11.20;99.90;;;;;;6321356;22;20073;-88
2023/05/17 16:35:40;;;;;;;9.95;4.22;;;11.50;99.90;;;;;;6282109;22;20031;-89
2023/05/17 16:39:09;;;;;;;6.22;3.80;;;11.80;99.90;;;;;;6322309;22;20022;-89
2023/05/17 16:42:43;;;;;;;9.40;4.07;;;11.90;99.90;;;;;;6344255;22;20030;-89
2023/05/17 16:45:43;;;;;;;9.27;4.25;;;11.90;99.90;;;;;;6300167;22;20036;-88
2023/05/17 16:48:31;;;;;;;9.55;3.97;;;11.70;99.90;;;;;;6318840;22;20026;-90
2023/05/17 16:51:21;;;;;;;10.85;4.13;;;11.40;99.90;;;;;;6317541;22;20033;-90
2023/05/17 16:54:11;;;;;;;6.78;3.53;;;11.20;99.90;;;;;;6317263;22;20034;-87
2023/05/17 16:57:07;;;;;;;7.70;4.00;;;11.10;99.90;;;;;;6316978;22;20023;-89
2023/05/17 16:59:59;;;;;;;9.90;4.35;;;10.90;99.90;;;;;;6325695;22;20717;-89
2023/05/17 17:02:48;;;;;;;8.20;3.83;;;10.90;99.90;;;;;;6320999;22;20042;-89
2023/05/17 17:05:59;;;;;;;10.60;4.63;;;10.80;99.90;;;;;;6322419;22;20038;-92
2023/05/17 17:08:49;;;;;;;6.93;4.05;;;10.80;99.90;;;;;;6322918;22;20040;-89
2023/05/17 17:11:37;;;;;;;11.32;3.97;;;10.80;99.90;;;;;;6319504;22;20050;-90
2023/05/17 17:14:25;;;;;;;8.63;3.95;;;10.80;99.90;;;;;;6318544;22;20079;-91
2023/05/17 17:17:13;;;;;;;9.32;4.40;;;10.70;99.90;;;;;;6318990;22;20019;-88
2023/05/17 17:20:00;;;;;;;7.97;4.05;;;10.70;99.90;;;;;;6317830;22;20019;-91
2023/05/17 17:22:51;;;;;;;10.73;4.35;;;10.60;99.90;;;;;;6319504;22;20311;-90
2023/05/17 17:25:39;;;;;;;13.30;3.95;;;10.60;99.90;;;;;;6321319;22;20037;-89
2023/05/17 17:28:27;;;;;;;7.82;3.72;;;10.60;99.90;;;;;;6319508;22;20440;-87
2023/05/17 17:31:19;;;;;;;7.75;3.33;;;10.50;99.90;;;;;;6318591;22;20127;-87
2023/05/17 17:34:07;;;;;;;9.10;4.10;;;10.40;99.90;;;;;;6348102;22;20076;-88
2023/05/17 17:36:55;;;;;;;8.52;3.97;;;10.30;99.90;;;;;;6320043;22;20675;-89
2023/05/17 17:39:44;;;;;;;13.15;4.40;;;10.30;99.90;;;;;;6320909;22;20022;-89
2023/05/17 17:42:35;;;;;;;8.48;3.80;;;10.20;99.90;;;;;;6322267;22;20030;-90
2023/05/17 17:45:23;;;;;;;8.18;3.92;;;10.20;99.90;;;;;;6318538;22;20110;-88
2023/05/17 17:48:14;;;;;;;7.82;4.10;;;10.20;99.90;;;;;;6298471;22;20095;-90
2023/05/17 17:51:03;;;;;;;9.82;4.20;;;10.20;99.90;;;;;;6317698;22;20497;-89
2023/05/17 17:53:55;;;;;;;12.32;4.10;;;10.30;99.90;;;;;;6318335;22;20084;-88
2023/05/17 17:56:44;;;;;;;9.90;4.10;;;10.30;99.90;;;;;;6317879;22;20030;-87
2023/05/17 17:59:32;;;;;;;7.95;4.18;;;10.30;99.90;;;;;;6317564;22;20429;-88
2023/05/17 18:02:20;;;;;;;9.20;4.32;;;10.30;99.90;;;;;;6318401;22;20054;-91
2023/05/17 18:05:08;;;;;;;10.07;4.22;;;10.30;99.90;;;;;;6317934;22;20023;-89
2023/05/17 18:07:56;;;;;;;6.35;3.85;;;10.20;99.90;;;;;;6317773;22;20372;-88
2023/05/17 18:10:44;;;;;;;10.57;4.80;;;10.20;99.90;;;;;;6317098;22;20395;-90
2023/05/17 18:13:31;;;;;;;9.05;4.13;;;10.20;99.90;;;;;;6318180;22;20023;-90
2023/05/17 18:16:20;;;;;;;6.53;3.95;;;10.00;99.90;;;;;;6318272;22;20027;-90
2023/05/17 18:19:08;;;;;;;10.48;4.80;;;10.00;99.90;;;;;;6320145;22;20085;-90
2023/05/17 18:21:56;;;;;;;10.55;4.70;;;9.90;99.90;;;;;;6317380;22;20025;-90
2023/05/17 18:24:44;;;;;;;8.20;4.10;;;9.80;99.90;;;;;;6318762;22;20027;-90
2023/05/17 18:27:34;;;;;;;7.00;3.97;;;9.70;99.90;;;;;;6319392;22;20231;-89
2023/05/17 18:30:23;;;;;;;10.02;4.20;;;9.60;99.90;;;;;;6345161;22;20030;-89
2023/05/17 18:33:11;;;;;;;9.13;5.10;;;9.50;99.90;;;;;;6344302;22;20105;-90
2023/05/17 18:36:01;;;;;;;12.10;4.32;;;9.40;99.90;;;;;;6321453;22;20317;-90
2023/05/17 18:38:49;;;;;;;9.25;4.00;;;9.40;99.90;;;;;;6322892;22;20045;-90
2023/05/17 18:41:38;;;;;;;10.25;3.85;;;9.30;99.90;;;;;;6300883;22;20100;-90
2023/05/17 18:44:27;;;;;;;9.18;4.07;;;9.30;99.90;;;;;;6323685;22;20022;-91
2023/05/17 18:47:18;;;;;;;9.45;4.93;;;9.20;99.90;;;;;;6303337;22;20034;-90
2023/05/17 18:50:07;;;;;;;10.15;4.45;;;9.10;99.90;;;;;;6302982;22;20106;-90
2023/05/17 18:52:55;;;;;;;9.20;4.50;;;8.90;99.90;;;;;;6349262;22;20022;-90
2023/05/17 18:55:43;;;;;;;12.48;4.72;;;8.80;99.90;;;;;;6324991;22;20030;-90
2023/05/17 18:58:31;;;;;;;11.25;4.78;;;8.70;99.90;;;;;;6325882;22;20045;-89
2023/05/17 19:01:23;;;;;;;17.67;5.45;;;8.60;99.90;;;;;;6323976;22;20023;-89
2023/05/17 19:04:23;;;;;;;7.75;5.43;;;8.60;99.90;;;;;;6311255;22;20078;-90
2023/05/17 19:07:12;;;;;;;9.40;4.78;;;8.50;99.90;;;;;;6332978;22;20023;-90
2023/05/17 19:10:03;;;;;;;10.93;5.25;;;8.40;99.90;;;;;;6344173;22;20096;-90
2023/05/17 19:12:51;;;;;;;12.02;4.95;;;8.40;99.90;;;;;;6345731;22;20018;-89
2023/05/17 19:15:45;;;;;;;9.00;4.82;;;8.40;99.90;;;;;;6322178;22;20033;-89
2023/05/17 19:18:37;;;;;;;11.10;5.32;;;8.30;99.90;;;;;;6319463;22;20107;-88
2023/05/17 19:21:30;;;;;;;13.77;5.40;;;8.20;99.90;;;;;;6303592;22;20379;-88
2023/05/17 19:24:32;;;;;;;13.98;5.22;;;8.20;99.90;;;;;;6321585;22;20155;-88
2023/05/17 19:27:22;;;;;;;10.70;5.30;;;8.10;99.90;;;;;;6321215;22;20030;-89
2023/05/17 19:30:13;;;;;;;11.55;5.10;;;8.10;99.90;;;;;;6327706;22;20027;-89
2023/05/17 19:33:02;;;;;;;12.38;6.03;;;8.00;99.90;;;;;;6321646;22;20027;-88
2023/05/17 19:36:13;;;;;;;10.95;5.70;;;7.90;99.90;;;;;;6326169;22;20029;-90
2023/05/17 19:39:19;;;;;;;15.25;5.70;;;7.80;99.90;;;;;;6342169;22;20037;-89
2023/05/17 19:42:09;;;;;;;12.85;6.45;;;7.70;1.00;;;;;;6343226;22;20042;-89
2023/05/17 19:44:58;;;;;;;14.57;6.63;;;7.60;1.00;;;;;;6343889;22;20037;-89
2023/05/17 19:47:46;;;;;;;12.75;6.20;;;7.60;1.00;;;;;;6320926;22;20075;-89
2023/05/17 19:50:40;;;;;;;12.00;5.95;;;7.60;1.00;;;;;;6299841;22;20026;-89
2023/05/17 19:53:29;;;;;;;18.30;6.22;;;7.50;1.00;;;;;;6320091;22;20027;-88
2023/05/17 19:56:37;;;;;;;13.48;6.22;;;7.40;1.00;;;;;;6342419;22;20101;-90
2023/05/17 19:59:27;;;;;;;10.55;5.45;;;7.30;1.00;;;;;;6317172;22;20292;-90
2023/05/17 20:02:19;;;;;;;10.13;5.78;;;7.30;1.00;;;;;;6317292;22;20083;-89
2023/05/17 20:05:07;;;;;;;14.05;5.30;;;7.30;1.00;;;;;;6317690;22;20022;-91
2023/05/17 20:08:01;;;;;;;8.05;4.90;;;7.20;1.00;;;;;;6318661;22;20087;-88
2023/05/17 20:11:02;;;;;;;10.35;5.05;;;7.20;1.00;;;;;;6320541;22;20019;-90
2023/05/17 20:13:51;;;;;;;7.07;4.65;;;7.10;1.00;;;;;;6320206;22;20022;-88
2023/05/17 20:16:39;;;;;;;15.18;5.20;;;7.00;1.00;;;;;;6298041;22;20023;-89
2023/05/17 20:19:27;;;;;;;13.70;5.45;;;7.00;1.00;;;;;;6298618;22;20018;-89
2023/05/17 20:22:18;;;;;;;9.27;4.90;;;7.00;1.00;;;;;;6298456;22;20095;-89
2023/05/17 20:25:08;;;;;;;14.35;5.68;;;7.00;1.00;;;;;;6319189;22;20026;-89
2023/05/17 20:27:58;;;;;;;13.18;5.03;;;6.90;1.00;;;;;;6320299;22;20096;-89
2023/05/17 20:31:02;;;;;;;14.13;5.30;;;6.80;1.00;;;;;;6326844;22;20426;-87
2023/05/17 20:33:51;;;;;;;12.70;4.80;;;6.80;1.00;;;;;;6326641;22;20027;-89
2023/05/17 20:36:39;;;;;;;12.57;5.35;;;6.70;1.00;;;;;;6327521;22;20098;-89
2023/05/17 20:39:28;;;;;;;8.80;5.28;;;6.50;1.00;;;;;;6326980;22;20079;-89
2023/05/17 20:42:17;;;;;;;11.65;5.40;;;6.30;1.00;;;;;;6344793;22;20023;-89
2023/05/17 20:45:07;;;;;;;10.65;5.85;;;6.20;1.00;;;;;;6319815;22;20030;-90